Time;durP1;ratioP1;P1;durP2;ratioP2;P2;SDS_P1;SDS_P2;PMS_P1;PMS_P2;Temp;Humidity;BMP_temperature;BMP_pressure;BME280_temperature;BME280_humidity;BME280_pressure;Samples;Min_cycle;Max_cycle;Signal;HPM_P1;HPM_P2
2022/03/08 00:02:30;;;;;;;0.60;0.60;;;;;;;4.61;42.53;101793.31;5150220;28;20030;-77
2022/03/08 00:05:01;;;;;;;0.75;0.75;;;;;;;4.58;42.55;101793.28;5165859;28;20046;-77
2022/03/08 00:07:31;;;;;;;1.30;1.30;;;;;;;4.51;42.27;101791.41;5147620;28;20033;-76
2022/03/08 00:10:05;;;;;;;0.60;0.60;;;;;;;4.54;42.71;101788.88;5171453;28;20381;-77
2022/03/08 00:12:35;;;;;;;;;;;;;;;4.52;42.12;101787.97;5151963;28;20050;-75
2022/03/08 00:15:14;;;;;;;1.15;1.13;;;;;;;4.50;43.01;101777.56;5163409;28;19928;-77
2022/03/08 00:17:47;;;;;;;2.30;2.10;;;;;;;4.46;42.21;101777.50;5173044;28;20037;-77
2022/03/08 00:20:18;;;;;;;0.40;0.40;;;;;;;4.25;42.94;101773.72;5152727;28;20048;-76
2022/03/08 00:22:48;;;;;;;0.40;0.40;;;;;;;4.37;42.63;101779.09;5157378;28;20023;-77
2022/03/08 00:25:19;;;;;;;0.60;0.60;;;;;;;4.31;42.40;101768.63;5156866;28;20034;-77
2022/03/08 00:27:53;;;;;;;;;;;;;;;4.24;42.61;101772.84;5152910;28;20076;-76
2022/03/08 00:30:26;;;;;;;0.52;0.52;;;;;;;4.25;42.43;101773.72;5168559;28;19922;-76
2022/03/08 00:33:12;;;;;;;1.08;1.08;;;;;;;4.20;43.17;101772.75;5168979;28;20042;-76
2022/03/08 00:35:44;;;;;;;1.02;1.02;;;;;;;4.27;43.22;101774.59;5177297;28;20042;-76
2022/03/08 00:38:15;;;;;;;1.52;1.42;;;;;;;4.21;42.54;101771.91;5156651;28;20044;-74
2022/03/08 00:40:46;;;;;;;1.00;0.98;;;;;;;4.24;42.68;101774.56;5167818;28;20413;-77
2022/03/08 00:43:17;;;;;;;2.35;2.15;;;;;;;4.25;42.67;101773.72;5167569;28;20039;-76
2022/03/08 00:45:47;;;;;;;1.63;1.52;;;;;;;4.28;42.85;101768.56;5159474;28;20051;-77
2022/03/08 00:48:18;;;;;;;1.45;1.25;;;;;;;4.16;43.09;101765.78;5138362;28;20038;-76
2022/03/08 00:50:48;;;;;;;0.40;0.40;;;;;;;4.17;43.33;101763.19;5152572;28;20038;-76
2022/03/08 00:53:19;;;;;;;0.90;0.90;;;;;;;4.22;42.82;101771.94;5158291;28;20034;-75
2022/03/08 00:55:50;;;;;;;1.48;1.45;;;;;;;4.17;42.96;101763.19;5153082;28;20038;-76
2022/03/08 00:58:21;;;;;;;0.82;0.82;;;;;;;4.15;43.47;101764.88;5153524;28;20123;-75
2022/03/08 01:01:06;;;;;;;;;;;;;;;;;;;;;
2022/03/08 01:03:52;;;;;;;0.80;0.80;;;;;;;4.12;43.08;101764.84;5167210;28;20129;-75
2022/03/08 01:06:24;;;;;;;0.85;0.85;;;;;;;4.05;43.57;101768.22;5148303;28;20752;-76
2022/03/08 01:08:55;;;;;;;2.50;1.90;;;;;;;4.13;43.68;101765.72;5162177;28;20118;-77
2022/03/08 01:11:26;;;;;;;0.73;0.73;;;;;;;4.10;43.62;101761.34;5154935;28;20066;-77
2022/03/08 01:13:57;;;;;;;0.50;0.50;;;;;;;4.14;43.30;101762.28;5155962;28;20126;-77
2022/03/08 01:16:27;;;;;;;0.85;0.85;;;;;;;4.04;44.01;101756.94;5186314;28;20125;-76
2022/03/08 01:18:58;;;;;;;1.02;1.02;;;;;;;4.13;43.12;101763.13;5155283;28;20053;-77
2022/03/08 01:21:28;;;;;;;0.30;0.30;;;;;;;4.03;43.48;101755.19;5156683;28;20568;-77
2022/03/08 01:23:59;;;;;;;1.92;1.42;;;;;;;3.99;43.44;101750.78;5157959;28;20092;-77
2022/03/08 01:26:32;;;;;;;0.50;0.50;;;;;;;4.05;43.51;101745.69;5172677;28;20056;-76
2022/03/08 01:29:03;;;;;;;0.95;0.95;;;;;;;3.91;43.51;101744.59;5156015;28;20110;-76
2022/03/08 01:31:34;;;;;;;0.30;0.30;;;;;;;3.90;43.88;101742.84;5160387;28;20038;-77
2022/03/08 01:34:07;;;;;;;0.50;0.50;;;;;;;3.95;43.70;101733.41;5145575;28;20138;-76
2022/03/08 01:36:38;;;;;;;0.47;0.47;;;;;;;3.96;43.88;101732.56;5152947;28;20288;-76
2022/03/08 01:39:09;;;;;;;0.40;0.40;;;;;;;3.95;44.01;101736.00;5162088;28;20045;-76
2022/03/08 01:41:40;;;;;;;0.88;0.88;;;;;;;3.88;44.29;101737.63;5150082;28;20049;-77
2022/03/08 01:44:10;;;;;;;0.68;0.68;;;;;;;3.93;43.91;101738.56;5165466;28;20081;-77
2022/03/08 01:46:41;;;;;;;0.30;0.30;;;;;;;3.95;44.02;101736.00;5158248;28;20467;-77
2022/03/08 01:49:12;;;;;;;0.90;0.90;;;;;;;3.85;44.18;101736.69;5148087;28;20565;-76
2022/03/08 01:51:43;;;;;;;0.93;0.93;;;;;;;3.90;44.05;101737.66;5156496;28;20112;-77
2022/03/08 01:54:14;;;;;;;0.55;0.55;;;;;;;3.93;43.70;101738.56;5148542;28;20113;-77
2022/03/08 01:56:44;;;;;;;0.80;0.80;;;;;;;3.80;44.61;101739.22;5157711;28;20046;-75
2022/03/08 01:59:15;;;;;;;0.40;0.40;;;;;;;3.89;44.63;101730.72;5158571;28;20035;-75
2022/03/08 02:01:48;;;;;;;0.50;0.50;;;;;;;3.91;44.45;101739.41;5162770;28;20142;-77
2022/03/08 02:04:20;;;;;;;0.60;0.60;;;;;;;3.85;44.30;101731.50;5156351;28;20768;-76
2022/03/08 02:06:50;;;;;;;2.28;1.27;;;;;;;3.84;44.48;101730.63;5170811;28;20038;-76
2022/03/08 02:09:21;;;;;;;2.55;1.95;;;;;;;3.71;44.44;101719.16;5167819;28;20042;-76
2022/03/08 02:11:52;;;;;;;0.63;0.63;;;;;;;3.83;44.92;101720.22;5157031;28;20046;-77
2022/03/08 02:14:23;;;;;;;1.35;1.25;;;;;;;3.80;44.45;101714.97;5141283;28;20030;-76
2022/03/08 02:16:53;;;;;;;1.00;1.00;;;;;;;3.80;44.74;101713.28;5171442;28;20064;-77
2022/03/08 02:19:24;;;;;;;0.60;0.60;;;;;;;3.76;44.71;101720.09;5147151;28;20069;-78
2022/03/08 02:21:55;;;;;;;0.47;0.47;;;;;;;3.83;44.20;101715.03;5157987;28;20038;-77
2022/03/08 02:24:26;;;;;;;0.57;0.57;;;;;;;3.69;44.68;101701.81;5168587;28;20030;-77
2022/03/08 02:26:58;;;;;;;0.50;0.50;;;;;;;3.68;44.78;101700.94;5175544;28;20328;-76
2022/03/08 02:29:28;;;;;;;0.75;0.75;;;;;;;3.53;45.11;101696.34;5167413;28;20146;-77
2022/03/08 02:31:59;;;;;;;0.70;0.70;;;;;;;3.64;44.68;101693.94;5169196;28;20146;-76
2022/03/08 02:34:30;;;;;;;1.05;1.05;;;;;;;3.60;44.90;101692.13;5175206;28;20522;-77
2022/03/08 02:37:11;;;;;;;1.70;1.60;;;;;;;3.33;45.98;101682.13;5168144;28;20069;-77
2022/03/08 02:39:43;;;;;;;1.10;1.08;;;;;;;3.53;45.00;101682.50;5153566;28;20103;-76
2022/03/08 02:42:14;;;;;;;1.05;1.05;;;;;;;3.46;45.85;101685.00;5140989;28;20121;-77
2022/03/08 02:44:44;;;;;;;0.75;0.75;;;;;;;3.38;45.41;101677.94;5170453;28;20153;-77
2022/03/08 02:47:15;;;;;;;0.30;0.30;;;;;;;3.32;45.73;101665.72;5156042;28;20030;-77
2022/03/08 02:49:46;;;;;;;17.17;3.15;;;;;;;3.35;45.08;101668.34;5171590;28;20054;-75
2022/03/08 02:52:19;;;;;;;0.55;0.55;;;;;;;3.38;44.89;101667.56;5155334;28;20045;-77
2022/03/08 02:54:49;;;;;;;0.47;0.47;;;;;;;3.22;45.66;101668.97;5164019;28;20042;-76
2022/03/08 02:57:20;;;;;;;0.82;0.82;;;;;;;3.27;45.13;101665.63;5157864;28;20030;-75
2022/03/08 02:59:50;;;;;;;0.47;0.47;;;;;;;3.23;46.11;101660.34;5154347;28;20037;-77
2022/03/08 03:02:21;;;;;;;0.50;0.50;;;;;;;3.45;44.99;101656.44;5156209;28;20107;-77
2022/03/08 03:04:52;;;;;;;0.40;0.40;;;;;;;3.21;46.16;101662.94;5153535;28;20041;-77
2022/03/08 03:07:23;;;;;;;1.35;1.30;;;;;;;3.27;46.06;101664.75;5182237;28;20038;-75
2022/03/08 03:09:54;;;;;;;0.98;0.93;;;;;;;3.39;45.58;101661.53;5154856;28;20045;-76
2022/03/08 03:12:24;;;;;;;0.50;0.50;;;;;;;3.17;46.00;101670.63;5175835;28;20053;-75
2022/03/08 03:14:55;;;;;;;0.30;0.30;;;;;;;3.30;45.33;101665.69;5170012;28;20041;-76
2022/03/08 03:17:26;;;;;;;0.20;0.20;;;;;;;3.24;45.63;101662.97;5157620;28;20057;-77
2022/03/08 03:19:56;;;;;;;0.47;0.47;;;;;;;3.37;45.50;101663.22;5170168;28;20122;-77
2022/03/08 03:22:27;;;;;;;0.38;0.38;;;;;;;3.32;45.15;101665.72;5156774;28;20847;-75
2022/03/08 03:24:57;;;;;;;0.40;0.40;;;;;;;3.29;45.85;101655.28;5154931;28;20058;-77
2022/03/08 03:27:28;;;;;;;0.43;0.43;;;;;;;3.25;45.64;101664.72;5164482;28;20148;-77
2022/03/08 03:29:58;;;;;;;0.95;0.95;;;;;;;3.19;46.16;101653.34;5147320;28;20136;-77
2022/03/08 03:32:29;;;;;;;0.93;0.93;;;;;;;3.19;45.75;101658.53;5155329;28;20026;-77
2022/03/08 03:35:00;;;;;;;0.85;0.85;;;;;;;3.05;45.93;101656.56;5153395;28;20061;-75
2022/03/08 03:37:31;;;;;;;0.50;0.50;;;;;;;3.05;46.05;101643.59;5176948;28;20049;-75
2022/03/08 03:40:03;;;;;;;0.28;0.28;;;;;;;3.06;46.06;101650.53;5170377;28;20038;-75
2022/03/08 03:42:34;;;;;;;0.40;0.40;;;;;;;3.18;45.63;101649.91;5174043;28;20052;-77
2022/03/08 03:45:06;;;;;;;1.20;1.15;;;;;;;3.10;46.22;101657.50;5152042;28;20640;-77
2022/03/08 03:47:37;;;;;;;0.32;0.32;;;;;;;3.16;46.06;101654.16;5140774;28;20081;-77
2022/03/08 03:50:09;;;;;;;1.80;1.70;;;;;;;3.26;45.50;101650.06;5148726;28;20130;-77
2022/03/08 03:52:39;;;;;;;0.75;0.75;;;;;;;3.26;45.63;101650.06;5147686;28;20025;-77
2022/03/08 03:55:12;;;;;;;0.40;0.40;;;;;;;3.25;45.86;101658.69;5153990;28;20060;-77
2022/03/08 03:57:43;;;;;;;0.40;0.40;;;;;;;3.23;45.70;101656.03;5140844;28;20043;-76
2022/03/08 04:00:15;;;;;;;0.30;0.30;;;;;;;3.27;45.57;101646.56;5151097;28;20424;-77
2022/03/08 04:02:46;;;;;;;0.57;0.57;;;;;;;3.28;45.43;101646.63;5184228;28;20089;-77
2022/03/08 04:05:17;;;;;;;0.30;0.30;;;;;;;3.22;45.89;101645.63;5155979;28;20053;-77
2022/03/08 04:07:47;;;;;;;0.70;0.70;;;;;;;3.01;46.58;101638.34;5158923;28;20799;-77
2022/03/08 04:10:18;;;;;;;0.45;0.45;;;;;;;2.89;46.84;101638.97;5171226;28;20101;-76
2022/03/08 04:12:48;;;;;;;0.30;0.30;;;;;;;3.11;46.26;101640.25;5158289;28;20030;-77
2022/03/08 04:15:19;;;;;;;1.42;1.33;;;;;;;3.14;46.40;101635.13;5154671;28;20046;-76
2022/03/08 04:17:49;;;;;;;0.65;0.65;;;;;;;3.03;46.60;101632.31;5179697;28;20043;-76
2022/03/08 04:20:20;;;;;;;0.32;0.32;;;;;;;2.88;47.01;101632.03;5159058;28;20042;-75
2022/03/08 04:22:50;;;;;;;0.30;0.30;;;;;;;2.82;47.28;101631.09;5160989;28;20039;-77
2022/03/08 04:25:21;;;;;;;0.40;0.40;;;;;;;2.93;47.37;101636.47;5165602;28;20046;-77
2022/03/08 04:27:52;;;;;;;1.05;1.05;;;;;;;2.82;46.81;101628.50;5139491;28;20130;-77
2022/03/08 04:30:22;;;;;;;1.33;1.33;;;;;;;2.82;47.34;101631.09;5164311;28;20512;-76
2022/03/08 04:32:53;;;;;;;0.40;0.40;;;;;;;2.98;46.80;101621.00;5155253;28;20478;-77
2022/03/08 04:35:23;;;;;;;0.30;0.30;;;;;;;3.07;46.48;101622.88;5136328;28;20042;-76
2022/03/08 04:37:54;;;;;;;1.25;1.17;;;;;;;3.08;46.51;101624.63;5156676;28;20474;-77
2022/03/08 04:40:24;;;;;;;0.43;0.43;;;;;;;3.08;46.88;101615.16;5171909;28;20045;-77
2022/03/08 04:42:55;;;;;;;0.45;0.45;;;;;;;2.92;46.63;101613.13;5166031;28;20494;-77
2022/03/08 04:45:26;;;;;;;0.52;0.52;;;;;;;2.98;47.39;101616.69;5171385;28;20049;-77
2022/03/08 04:47:56;;;;;;;0.50;0.50;;;;;;;2.87;47.26;101618.22;5160838;28;20039;-76
2022/03/08 04:50:27;;;;;;;0.20;0.20;;;;;;;2.86;47.11;101612.97;5166052;28;20064;-78
2022/03/08 04:52:57;;;;;;;0.60;0.60;;;;;;;2.94;46.85;101614.88;5175249;28;20034;-77
2022/03/08 04:55:28;;;;;;;1.00;1.00;;;;;;;2.80;47.32;101613.75;5164222;28;20124;-78
2022/03/08 04:57:58;;;;;;;0.30;0.30;;;;;;;2.74;47.24;101609.31;5176811;28;20033;-77
2022/03/08 05:00:29;;;;;;;0.77;0.77;;;;;;;2.89;47.33;101606.16;5169455;28;20038;-77
2022/03/08 05:02:59;;;;;;;0.40;0.40;;;;;;;2.62;48.44;101614.25;5176686;28;20037;-77
2022/03/08 05:05:32;;;;;;;0.22;0.22;;;;;;;2.60;48.15;101610.78;5159781;28;20664;-77
2022/03/08 05:08:03;;;;;;;0.60;0.60;;;;;;;2.58;47.71;101622.81;5178986;28;20042;-77
2022/03/08 05:10:34;;;;;;;0.40;0.40;;;;;;;2.40;48.51;101625.91;5137507;28;20049;-76
2022/03/08 05:13:04;;;;;;;0.32;0.32;;;;;;;2.28;49.30;101634.25;5155057;28;20046;-76
2022/03/08 05:15:36;;;;;;;0.60;0.60;;;;;;;2.75;47.49;101626.63;5155265;28;20153;-77
2022/03/08 05:18:07;;;;;;;0.40;0.40;;;;;;;2.63;48.17;101626.38;5159875;28;20116;-76
2022/03/08 05:20:38;;;;;;;3.90;2.08;;;;;;;2.34;49.34;101621.47;5142316;28;20050;-76
2022/03/08 05:23:08;;;;;;;1.67;1.58;;;;;;;2.29;49.68;101617.88;5158096;28;20233;-77
2022/03/08 05:25:39;;;;;;;0.80;0.80;;;;;;;2.50;48.72;101608.00;5164077;28;20046;-77
2022/03/08 05:28:10;;;;;;;0.70;0.70;;;;;;;2.30;49.50;101617.94;5158307;28;20034;-77
2022/03/08 05:30:41;;;;;;;0.77;0.77;;;;;;;2.46;48.54;101608.75;5141844;28;20037;-76
2022/03/08 05:33:14;;;;;;;0.40;0.40;;;;;;;2.64;48.30;101607.38;5149313;28;20026;-75
2022/03/08 05:35:45;;;;;;;0.60;0.60;;;;;;;2.48;48.77;101607.09;5146714;28;20072;-76
2022/03/08 05:38:15;;;;;;;0.30;0.30;;;;;;;2.38;48.95;101599.09;5170040;28;20038;-77
2022/03/08 05:40:46;;;;;;;0.90;0.90;;;;;;;2.48;48.23;101608.81;5149505;28;20034;-76
2022/03/08 05:43:16;;;;;;;7.97;2.00;;;;;;;2.47;48.30;101607.91;5158113;28;20483;-77
2022/03/08 05:45:47;;;;;;;1.02;1.02;;;;;;;2.52;48.84;101610.59;5165481;28;20409;-77
2022/03/08 05:48:17;;;;;;;0.60;0.60;;;;;;;2.36;49.13;101617.16;5162093;28;20045;-78
2022/03/08 05:50:48;;;;;;;0.77;0.77;;;;;;;2.18;49.57;101617.66;5151488;28;20117;-76
2022/03/08 05:53:18;;;;;;;0.20;0.20;;;;;;;2.38;49.03;101610.31;5157813;28;20033;-77
2022/03/08 05:55:49;;;;;;;0.47;0.45;;;;;;;2.48;48.62;101617.44;5151794;28;20053;-76
2022/03/08 05:58:20;;;;;;;0.38;0.38;;;;;;;2.53;48.65;101620.13;5155323;28;20034;-77
2022/03/08 06:00:50;;;;;;;0.77;0.77;;;;;;;2.42;48.56;101619.91;5157267;28;20691;-77
2022/03/08 06:03:21;;;;;;;0.30;0.30;;;;;;;2.38;49.07;101625.84;5160961;28;20120;-76
2022/03/08 06:05:52;;;;;;;0.60;0.60;;;;;;;2.33;48.74;101625.75;5152998;28;20068;-75
2022/03/08 06:08:22;;;;;;;0.40;0.40;;;;;;;2.45;48.92;101632.91;5166078;28;20048;-77
2022/03/08 06:10:52;;;;;;;1.98;0.98;;;;;;;2.42;49.14;101632.88;5170068;28;20042;-76
2022/03/08 06:13:26;;;;;;;0.40;0.40;;;;;;;2.39;49.33;101632.78;5157128;28;20106;-76
2022/03/08 06:15:56;;;;;;;0.50;0.50;;;;;;;2.20;49.51;101629.78;5163068;28;20673;-75
2022/03/08 06:18:27;;;;;;;0.38;0.38;;;;;;;2.13;49.43;101625.31;5160058;28;20034;-77
2022/03/08 06:20:57;;;;;;;0.30;0.30;;;;;;;2.13;49.75;101629.66;5157856;28;20038;-78
2022/03/08 06:23:28;;;;;;;0.63;0.60;;;;;;;2.15;49.34;101634.00;5169812;28;20033;-76
2022/03/08 06:25:59;;;;;;;0.50;0.50;;;;;;;2.27;48.86;101637.72;5176224;28;20049;-77
2022/03/08 06:28:29;;;;;;;0.60;0.60;;;;;;;2.14;49.47;101632.25;5156761;28;20043;-77
2022/03/08 06:31:00;;;;;;;1.25;1.20;;;;;;;2.03;50.24;101629.44;5185662;28;20057;-76
2022/03/08 06:33:30;;;;;;;0.85;0.82;;;;;;;2.05;49.89;101637.22;5142444;28;20037;-76
2022/03/08 06:36:01;;;;;;;0.52;0.50;;;;;;;2.14;49.54;101637.44;5189323;28;20054;-77
2022/03/08 06:38:31;;;;;;;1.20;1.10;;;;;;;2.13;50.02;101629.66;5154485;28;20026;-77
2022/03/08 06:41:02;;;;;;;0.60;0.52;;;;;;;1.92;50.55;101632.63;5171592;28;20049;-75
2022/03/08 06:43:33;;;;;;;0.40;0.40;;;;;;;1.92;50.71;101627.44;5158815;28;20077;-76
2022/03/08 06:46:04;;;;;;;0.30;0.30;;;;;;;1.96;50.73;101617.19;5158584;28;20050;-77
2022/03/08 06:48:35;;;;;;;0.50;0.50;;;;;;;1.94;50.05;101628.34;5157079;28;20042;-75
2022/03/08 06:51:06;;;;;;;0.90;0.90;;;;;;;2.27;49.39;101624.78;5142015;28;20912;-77
2022/03/08 06:53:40;;;;;;;0.77;0.77;;;;;;;2.05;50.46;101629.44;5159048;28;20493;-75
2022/03/08 06:56:10;;;;;;;0.50;0.50;;;;;;;2.26;49.59;101630.78;5170863;28;20037;-77
2022/03/08 06:58:44;;;;;;;4.85;1.27;;;;;;;2.29;49.47;101638.59;5171835;28;20090;-76
2022/03/08 07:01:15;;;;;;;0.40;0.40;;;;;;;2.03;50.08;101634.59;5170113;28;20519;-76
2022/03/08 07:03:45;;;;;;;0.80;0.80;;;;;;;2.12;49.73;101639.09;5155776;28;20061;-77
2022/03/08 07:06:16;;;;;;;0.52;0.52;;;;;;;2.24;49.80;101622.97;5172242;28;20045;-77
2022/03/08 07:08:46;;;;;;;1.05;1.05;;;;;;;2.04;50.47;101620.81;5163343;28;20748;-77
2022/03/08 07:11:17;;;;;;;0.40;0.40;;;;;;;2.34;49.31;101622.34;5174440;28;20049;-76
2022/03/08 07:13:48;;;;;;;0.40;0.40;;;;;;;2.17;50.77;101621.97;5169157;28;20030;-77
2022/03/08 07:16:18;;;;;;;0.40;0.40;;;;;;;2.12;50.81;101622.72;5146653;28;20116;-77
2022/03/08 07:18:49;;;;;;;0.50;0.50;;;;;;;2.24;49.77;101616.94;5172988;28;20031;-77
2022/03/08 07:21:19;;;;;;;0.30;0.30;;;;;;;2.21;50.01;101617.75;5173597;28;20034;-78
2022/03/08 07:23:50;;;;;;;0.38;0.38;;;;;;;2.31;49.97;101618.81;5174259;28;20018;-75
2022/03/08 07:26:21;;;;;;;0.30;0.30;;;;;;;2.31;50.21;101618.81;5183499;28;20707;-77
2022/03/08 07:28:52;;;;;;;0.30;0.30;;;;;;;2.38;49.80;101620.69;5184657;28;20026;-76
2022/03/08 07:31:23;;;;;;;4.03;1.52;;;;;;;2.15;49.82;101622.78;5154001;28;20034;-77
2022/03/08 07:33:53;;;;;;;1.13;1.05;;;;;;;2.40;49.94;101623.31;5157281;28;20056;-77
2022/03/08 07:36:24;;;;;;;0.40;0.40;;;;;;;2.29;50.08;101623.06;5157849;28;20053;-77
2022/03/08 07:38:55;;;;;;;0.82;0.82;;;;;;;2.38;49.70;101630.19;5175170;28;20168;-77
2022/03/08 07:41:25;;;;;;;0.50;0.50;;;;;;;2.34;49.16;101630.09;5166497;28;20056;-77
2022/03/08 07:43:56;;;;;;;0.50;0.50;;;;;;;2.34;49.42;101642.19;5157592;28;20025;-77
2022/03/08 07:46:26;;;;;;;0.90;0.90;;;;;;;2.54;49.26;101633.94;5138973;28;20663;-75
2022/03/08 07:48:57;;;;;;;0.40;0.40;;;;;;;2.54;48.76;101629.66;5156806;28;20029;-77
2022/03/08 07:51:28;;;;;;;0.68;0.68;;;;;;;2.41;49.18;101635.41;5150853;28;20066;-77
2022/03/08 07:53:59;;;;;;;0.30;0.30;;;;;;;2.54;49.08;101623.59;5195443;28;20042;-78
2022/03/08 07:56:29;;;;;;;0.30;0.30;;;;;;;2.41;48.89;101640.59;5175469;28;20124;-77
2022/03/08 07:59:00;;;;;;;1.17;1.13;;;;;;;2.65;48.63;101635.91;5175898;28;20148;-76
2022/03/08 08:01:31;;;;;;;1.15;1.15;;;;;;;2.67;48.73;101638.56;5157954;28;20121;-78
2022/03/08 08:04:02;;;;;;;1.55;1.30;;;;;;;2.70;48.40;101637.75;5166015;28;20034;-78
2022/03/08 08:06:35;;;;;;;;;;;;;;;2.72;48.17;101630.88;5163200;28;20238;-77
2022/03/08 08:09:06;;;;;;;0.60;0.60;;;;;;;2.69;48.43;101631.66;5193773;28;19970;-76
2022/03/08 08:11:38;;;;;;;0.30;0.30;;;;;;;2.85;48.42;101639.78;5138765;28;20535;-76
2022/03/08 08:14:08;;;;;;;0.47;0.47;;;;;;;2.88;48.37;101637.22;5154026;28;20042;-76
2022/03/08 08:16:39;;;;;;;2.65;0.90;;;;;;;2.81;48.56;101637.09;5142016;28;20042;-77
2022/03/08 08:19:12;;;;;;;0.40;0.40;;;;;;;2.92;48.30;101646.81;5154102;28;20366;-76
2022/03/08 08:21:43;;;;;;;1.48;1.38;;;;;;;2.96;47.65;101646.03;5166435;28;20040;-75
2022/03/08 08:24:14;;;;;;;0.40;0.40;;;;;;;3.06;47.36;101653.13;5183769;28;20033;-77
2022/03/08 08:26:44;;;;;;;0.50;0.50;;;;;;;3.07;48.09;101649.69;5140381;28;20053;-77
2022/03/08 08:29:15;;;;;;;0.45;0.45;;;;;;;3.10;47.58;101649.75;5166919;28;20034;-77
2022/03/08 08:31:45;;;;;;;0.50;0.50;;;;;;;3.19;47.61;101649.06;5152818;28;20042;-76
2022/03/08 08:34:16;;;;;;;0.32;0.32;;;;;;;3.15;47.95;101650.72;5135768;28;20508;-77
2022/03/08 08:36:47;;;;;;;0.47;0.47;;;;;;;3.21;47.98;101652.56;5155749;28;20049;-77
2022/03/08 08:39:17;;;;;;;0.40;0.40;;;;;;;3.26;47.19;101658.69;5160632;28;20026;-76
2022/03/08 08:41:48;;;;;;;0.85;0.85;;;;;;;3.29;47.94;101655.28;5169717;28;20057;-77
2022/03/08 08:44:24;;;;;;;0.75;0.75;;;;;;;3.41;47.69;101641.63;5168330;28;20027;-77
2022/03/08 08:46:56;;;;;;;0.43;0.43;;;;;;;3.54;47.50;101648.81;5173913;28;20042;-79
2022/03/08 08:49:38;;;;;;;0.43;0.43;;;;;;;3.56;47.26;101654.00;5169771;28;20502;-77
2022/03/08 08:52:11;;;;;;;0.47;0.47;;;;;;;3.65;46.42;101641.19;5154807;28;20026;-78
2022/03/08 08:54:41;;;;;;;0.85;0.85;;;;;;;3.69;47.16;101645.56;5165051;28;20048;-77
2022/03/08 08:57:15;;;;;;;1.13;1.05;;;;;;;3.69;47.46;101639.53;5175190;28;20114;-76
2022/03/08 08:59:45;;;;;;;1.58;1.05;;;;;;;3.69;47.22;101645.56;5155675;28;20058;-77
2022/03/08 09:02:16;;;;;;;0.57;0.57;;;;;;;3.73;47.50;101642.19;5155555;28;20077;-77
2022/03/08 09:04:47;;;;;;;0.30;0.30;;;;;;;3.84;47.06;101633.72;5157200;28;20050;-77
2022/03/08 09:07:17;;;;;;;0.43;0.43;;;;;;;3.87;47.05;101626.84;5155351;28;20041;-77
2022/03/08 09:09:49;;;;;;;0.88;0.88;;;;;;;3.93;46.51;101623.44;5168645;28;20049;-77
2022/03/08 09:12:19;;;;;;;0.60;0.60;;;;;;;4.00;46.77;101619.22;5156819;28;20048;-77
2022/03/08 09:14:50;;;;;;;1.05;0.98;;;;;;;4.05;46.19;101620.16;5170572;28;20050;-77
2022/03/08 09:17:24;;;;;;;2.20;1.00;;;;;;;4.08;45.97;101622.78;5139815;28;20030;-76
2022/03/08 09:19:57;;;;;;;0.82;0.65;;;;;;;4.14;45.79;101617.69;5181328;28;20052;-77
2022/03/08 09:22:28;;;;;;;0.93;0.93;;;;;;;4.26;46.08;101616.97;5141679;28;20034;-77
2022/03/08 09:24:58;;;;;;;0.75;0.75;;;;;;;4.34;45.11;101620.53;5159221;28;20050;-77
2022/03/08 09:27:30;;;;;;;0.40;0.40;;;;;;;4.31;45.49;101604.03;5158520;28;20439;-77
2022/03/08 09:30:10;;;;;;;4.43;2.08;;;;;;;4.33;44.55;101613.63;5151607;28;20724;-77
2022/03/08 09:32:51;;;;;;;0.75;0.75;;;;;;;4.43;43.82;101608.53;5159755;28;20600;-77
2022/03/08 09:35:22;;;;;;;0.30;0.30;;;;;;;4.49;45.04;101606.03;5175946;28;20050;-76
2022/03/08 09:37:54;;;;;;;1.05;0.95;;;;;;;4.52;44.41;101606.03;5160948;28;20374;-76
2022/03/08 09:40:28;;;;;;;0.52;0.52;;;;;;;4.49;43.73;101603.44;5152730;28;20046;-76
2022/03/08 09:42:58;;;;;;;0.65;0.65;;;;;;;4.64;44.17;101598.41;5140637;28;20030;-77
2022/03/08 09:45:29;;;;;;;0.60;0.60;;;;;;;4.67;43.90;101603.63;5157492;28;20108;-74
2022/03/08 09:48:01;;;;;;;0.50;0.50;;;;;;;4.78;44.31;101600.28;5178371;28;20050;-75
2022/03/08 09:50:31;;;;;;;0.35;0.35;;;;;;;4.79;43.59;101607.22;5162716;28;20080;-78
2022/03/08 09:53:03;;;;;;;1.38;1.33;;;;;;;4.93;44.18;101605.63;5162197;28;20037;-77
2022/03/08 09:55:37;;;;;;;0.80;0.80;;;;;;;4.98;43.63;101592.69;5169961;28;20041;-77
2022/03/08 09:58:09;;;;;;;0.35;0.35;;;;;;;4.95;42.52;101593.53;5165119;28;20030;-77
2022/03/08 10:00:42;;;;;;;0.50;0.50;;;;;;;5.01;42.60;101601.38;5176527;28;20045;-77
2022/03/08 10:03:13;;;;;;;0.50;0.50;;;;;;;5.12;42.99;101590.22;5183237;28;20064;-77
2022/03/08 10:05:43;;;;;;;0.57;0.57;;;;;;;5.15;41.74;101588.53;5167255;28;20581;-76
2022/03/08 10:08:21;;;;;;;0.90;0.90;;;;;;;5.27;41.86;101582.56;5168996;28;20445;-77
2022/03/08 10:11:00;;;;;;;0.80;0.80;;;;;;;5.31;42.65;101589.53;5158557;28;20679;-77
2022/03/08 10:13:41;;;;;;;1.05;1.05;;;;;;;5.41;40.78;101576.63;5159840;28;20523;-77
2022/03/08 10:16:41;;;;;;;0.32;0.32;;;;;;;5.34;41.48;101584.34;5157877;28;20547;-77
2022/03/08 10:19:15;;;;;;;0.60;0.60;;;;;;;5.51;41.15;101583.59;5155149;28;20037;-77
2022/03/08 10:21:51;;;;;;;0.20;0.20;;;;;;;5.56;40.28;101576.72;5162270;28;20174;-77
2022/03/08 10:24:30;;;;;;;0.20;0.20;;;;;;;5.59;40.27;101571.53;5159216;28;20038;-77
2022/03/08 10:27:06;;;;;;;0.85;0.85;;;;;;;5.71;40.95;101567.28;5163907;28;20128;-78
2022/03/08 10:29:39;;;;;;;0.30;0.30;;;;;;;5.90;40.58;101560.44;5157905;28;20046;-78
2022/03/08 10:32:16;;;;;;;0.85;0.85;;;;;;;5.82;40.61;101556.06;5145517;28;20055;-77
2022/03/08 10:34:51;;;;;;;1.00;1.00;;;;;;;5.95;40.00;101561.34;5157064;28;20099;-79
2022/03/08 10:37:24;;;;;;;1.23;1.13;;;;;;;5.97;39.97;101565.72;5154183;28;20036;-79
2022/03/08 10:40:09;;;;;;;0.20;0.20;;;;;;;6.07;40.96;101564.03;5173643;28;20048;-79
2022/03/08 10:42:40;;;;;;;0.35;0.35;;;;;;;6.09;38.45;101558.84;5166679;28;20026;-77
2022/03/08 10:45:16;;;;;;;0.30;0.30;;;;;;;6.16;40.83;101549.31;5152948;28;20065;-77
2022/03/08 10:47:52;;;;;;;1.15;1.05;;;;;;;6.29;39.57;101561.53;5160218;28;20037;-78
2022/03/08 10:50:24;;;;;;;0.35;0.35;;;;;;;6.23;39.45;101548.47;5176275;28;20045;-78
2022/03/08 10:52:59;;;;;;;0.35;0.35;;;;;;;6.26;39.32;101549.34;5154923;28;20041;-78
2022/03/08 10:55:31;;;;;;;0.40;0.40;;;;;;;6.39;40.31;101546.81;5150267;28;20074;-77
2022/03/08 10:58:10;;;;;;;0.50;0.50;;;;;;;6.48;40.93;101546.84;5155856;28;20026;-78
2022/03/08 11:00:43;;;;;;;0.63;0.63;;;;;;;6.49;39.85;101545.97;5170574;28;20703;-77
2022/03/08 11:03:16;;;;;;;0.40;0.40;;;;;;;6.65;40.45;101546.03;5160631;28;20046;-78
2022/03/08 11:05:53;;;;;;;0.32;0.32;;;;;;;6.70;39.96;101557.34;5155198;28;20547;-78
2022/03/08 11:08:28;;;;;;;0.60;0.60;;;;;;;6.66;39.46;101547.75;5150111;28;20125;-79
2022/03/08 11:10:59;;;;;;;0.20;0.20;;;;;;;6.72;38.80;101543.41;5169855;28;20065;-79
2022/03/08 11:13:30;;;;;;;1.15;1.15;;;;;;;6.75;38.47;101537.34;5142997;28;20061;-79
2022/03/08 11:16:01;;;;;;;0.80;0.80;;;;;;;6.83;39.25;101537.34;5173570;28;20052;-80
2022/03/08 11:18:32;;;;;;;1.23;1.17;;;;;;;6.88;38.67;101526.06;5153422;28;20541;-79
2022/03/08 11:21:10;;;;;;;0.77;0.77;;;;;;;6.93;39.16;101531.28;5172331;28;20081;-79
2022/03/08 11:23:45;;;;;;;;;;;;;;;6.97;38.58;101533.03;5160794;28;20027;-81
2022/03/08 11:26:16;;;;;;;0.95;0.95;;;;;;;7.08;38.00;101522.59;5160797;28;19921;-79
2022/03/08 11:28:48;;;;;;;1.65;1.50;;;;;;;7.13;38.72;101518.25;5167080;28;20315;-80
2022/03/08 11:31:25;;;;;;;0.30;0.30;;;;;;;7.19;37.91;101520.84;5149416;28;20100;-79
2022/03/08 11:34:09;;;;;;;0.50;0.50;;;;;;;7.20;37.18;101533.03;5159603;28;20025;-80
2022/03/08 11:36:53;;;;;;;1.08;1.00;;;;;;;7.25;38.22;101520.00;5157666;28;20049;-79
2022/03/08 11:39:25;;;;;;;;;;;;;;;7.38;37.81;101520.84;5155010;28;20026;-79
2022/03/08 11:42:20;;;;;;;0.50;0.50;;;;;;;7.37;38.80;101519.97;5173825;28;19925;-78
2022/03/08 11:45:12;;;;;;;1.75;1.27;;;;;;;7.49;37.82;101516.47;5168916;28;20041;-79
2022/03/08 11:47:51;;;;;;;0.50;0.50;;;;;;;7.52;37.75;101506.03;5160774;28;20072;-80
2022/03/08 11:50:39;;;;;;;0.30;0.30;;;;;;;7.67;37.40;101518.19;5155592;28;20113;-79
2022/03/08 11:53:12;;;;;;;0.70;0.70;;;;;;;7.68;37.64;101511.22;5144061;28;20076;-79
2022/03/08 11:55:48;;;;;;;0.60;0.60;;;;;;;7.75;37.48;101510.31;5175633;28;20045;-80
2022/03/08 11:58:20;;;;;;;0.55;0.55;;;;;;;7.94;37.65;101511.13;5169809;28;20069;-79
2022/03/08 12:00:55;;;;;;;0.47;0.47;;;;;;;7.99;37.38;101516.34;5156075;28;20759;-79